Monday, January 22, 2018, 9:09 AM EST
Back to Local

KIPT, Williamsport-lycoming County

Location: Montoursville, PA, United States Lat: 41.25
Local Time: 9:09 AM EST (14:09 GMT) Lon: -76.917
Time Zone: US/Eastern Elev: 528 ft

Show me the last for .
Show Decoded

2018-01-22 08:49 METAR KIPT 221349Z 00000KT 1 1/4SM BR OVC004 02/02 A3013 RMK AO2 SLP206
                 T00220022 =
2018-01-22 08:48 METAR KIPT 221348Z 00000KT 1SM BR OVC004 02/02 A3013 RMK AO2 =
2018-01-22 07:54 METAR KIPT 221254Z 00000KT 1/4SM FG VV003 01/01 A3012 RMK AO2 SLP206 T00110011 =
2018-01-22 07:43 METAR KIPT 221243Z 00000KT 1/4SM FG OVC003 01/01 A3013 RMK AO2 T00110011 =
2018-01-22 07:33 METAR KIPT 221233Z 00000KT 1/2SM FG OVC003 01/01 A3012 RMK AO2 T00110011 =
2018-01-22 07:09 METAR KIPT 221209Z 00000KT 1 1/4SM BR OVC003 01/01 A3013 RMK AO2 T00110011 =
2018-01-22 06:54 METAR KIPT 221154Z 00000KT 1/2SM FG OVC004 01/01 A3011 RMK AO2 SLP202 60000
                 70001 I6000 T00110011 10017 20011 53002 =
2018-01-22 06:43 METAR KIPT 221143Z 00000KT 1/2SM FG OVC004 01/01 A3011 RMK AO2 T00110011 =
2018-01-22 06:34 METAR KIPT 221134Z 00000KT 1SM BR OVC004 01/01 A3011 RMK AO2 T00110011 =
2018-01-22 06:26 METAR KIPT 221126Z 00000KT 3/4SM BR OVC004 02/02 A3011 RMK AO2 T00170017 =
2018-01-22 05:54 METAR KIPT 221054Z AUTO 00000KT 1/2SM FG OVC005 01/01 A3011 RMK AO2 SLP200
                 T00110011 =
2018-01-22 04:54 METAR KIPT 220954Z AUTO 00000KT 3/4SM BR OVC003 01/01 A3010 RMK AO2 SLP198
                 T00110011 =
2018-01-22 04:42 METAR KIPT 220942Z AUTO 00000KT 1/2SM FG OVC003 01/01 A3010 RMK AO2 T00110011 =
2018-01-22 04:32 METAR KIPT 220932Z AUTO 00000KT 1 1/2SM BR OVC003 02/02 A3010 RMK AO2 T00170017
                 =
2018-01-22 03:54 METAR KIPT 220854Z AUTO 00000KT 1/2SM FG OVC004 01/01 A3011 RMK AO2 SLP200 60000
                 I3000 T00110011 58000 =
2018-01-22 03:40 METAR KIPT 220840Z AUTO 00000KT 3/4SM BR OVC004 01/01 A3011 RMK AO2 T00110011 =
2018-01-22 03:23 METAR KIPT 220823Z AUTO 00000KT 1/2SM FG VV005 01/01 A3011 RMK AO2 T00110011 =
2018-01-22 03:19 METAR KIPT 220819Z AUTO 00000KT 1/4SM FG VV004 01/01 A3010 RMK AO2 T00110011 =
2018-01-22 03:01 METAR KIPT 220801Z AUTO 00000KT 3/4SM BR OVC004 01/01 A3011 RMK AO2 T00110011 =
2018-01-22 02:54 METAR KIPT 220754Z AUTO 00000KT 1/2SM FG OVC005 02/02 A3012 RMK AO2 RAB09E45
                 SLP203 P0000 I1000 T00170017 =
2018-01-22 02:46 METAR KIPT 220746Z AUTO 00000KT 1/2SM FG OVC005 02/02 A3012 RMK AO2 RAB09E45
                 P0000 I1000 T00170017 =
2018-01-22 02:05 METAR KIPT 220705Z AUTO 00000KT 1/2SM FG OVC003 01/01 A3012 RMK AO2 T00110011 =
2018-01-22 01:54 METAR KIPT 220654Z AUTO 00000KT 1SM BR OVC003 02/02 A3012 RMK AO2 RAE06 SLP203
                 P0000 T00170017 =
2018-01-22 01:17 METAR KIPT 220617Z AUTO 00000KT 1/2SM FG OVC004 02/02 A3011 RMK AO2 RAE06 P0000
                 T00170017 =
2018-01-22 01:02 METAR KIPT 220602Z AUTO 00000KT 3/4SM -RA BR OVC005 02/02 A3011 RMK AO2 P0000
                 T00170017 =
2018-01-22 00:54 METAR KIPT 220554Z AUTO 00000KT 1/2SM -RA FG OVC004 02/02 A3011 RMK AO2
                 RAB03E14B50 SLP200 P0000 60001 T00170017 10022 20011 58004 =
2018-01-22 00:21 METAR KIPT 220521Z AUTO 00000KT 3/4SM BR BKN002 OVC017 02/02 A3012 RMK AO2
                 RAB03E14 P0000 T00170017 =
2018-01-22 00:01 METAR KIPT 220501Z AUTO 00000KT 3/4SM BR SCT004 OVC018 02/01 A3012 RMK AO2
                 T00170011 =
2018-01-21 23:54 METAR KIPT 220454Z AUTO 00000KT 1/2SM FG BKN005 BKN018 OVC024 02/01 A3012 RMK
                 AO2 SLP205 T00170011 400441044 =
2018-01-21 23:30 METAR KIPT 220430Z AUTO 00000KT 1 1/4SM BR OVC005 02/02 A3013 RMK AO2 T00170017
                 =
2018-01-21 23:23 METAR KIPT 220423Z AUTO 00000KT 2SM BR BKN005 OVC047 02/01 A3013 RMK AO2
                 T00170011 =
2018-01-21 23:11 METAR KIPT 220411Z AUTO 00000KT 1 1/4SM BR BKN005 BKN016 OVC047 02/02 A3013 RMK
                 AO2 T00170017 =
2018-01-21 23:08 METAR KIPT 220408Z AUTO 00000KT 3/4SM BR SCT005 BKN016 OVC046 02/02 A3012 RMK
                 AO2 T00170017 =
2018-01-21 22:54 METAR KIPT 220354Z AUTO 00000KT 1 3/4SM BR FEW004 BKN023 OVC032 02/01 A3012 RMK
                 AO2 RAE50 SLP205 P0001 T00170011 =
2018-01-21 22:33 METAR KIPT 220333Z AUTO 00000KT 1 1/2SM -RA BR OVC024 02/02 A3013 RMK AO2 P0000
                 T00170017 =
2018-01-21 22:19 METAR KIPT 220319Z 00000KT 2SM -RA BR OVC024 02/02 A3013 RMK AO2 P0000 T00170017
                 =
2018-01-21 21:54 METAR KIPT 220254Z 00000KT 3SM -RA BR OVC024 02/02 A3013 RMK AO2 RAB42 SLP209
                 P0000 60000 T00170017 53003 =
2018-01-21 20:54 METAR KIPT 220154Z 00000KT 5SM BR OVC028 02/01 A3013 RMK AO2 SLP207 T00170011 =
2018-01-21 20:49 METAR KIPT 220149Z 00000KT 5SM BR OVC028 02/01 A3013 RMK AO2 =
2018-01-21 20:38 METAR KIPT 220138Z 00000KT 6SM BR FEW014 OVC030 02/02 A3013 RMK AO2 T00170017 =
2018-01-21 19:54 METAR KIPT 220054Z 00000KT 7SM OVC025 02/01 A3012 RMK AO2 RAE16 SLP207 P0000
                 T00170011 =
2018-01-21 18:54 METAR KIPT 212354Z 00000KT 6SM -RA BR BKN015 OVC029 02/01 A3013 RMK AO2 RAB46
                 SLP207 P0000 60000 T00170006 10044 20017 51006 =
2018-01-21 18:25 METAR KIPT 212325Z 00000KT 10SM OVC015 03/01 A3012 RMK AO2 T00280006 =
2018-01-21 17:54 METAR KIPT 212254Z 29003KT 10SM OVC012 03/01 A3012 RMK AO2 SLP206 T00280006 =
2018-01-21 16:54 METAR KIPT 212154Z 00000KT 10SM OVC014 03/00 A3011 RMK AO2 SLP203 T00330000 =
2018-01-21 16:45 METAR KIPT 212145Z 00000KT 10SM OVC014 03/01 A3011 RMK AO2 T00330006 =
2018-01-21 15:54 METAR KIPT 212054Z 00000KT 10SM OVC016 04/00 A3011 RMK AO2 SLP201 T00440000
                 55009 =
2018-01-21 14:54 METAR KIPT 211954Z 00000KT 10SM OVC019 04/00 A3011 RMK AO2 SLP201 T00440000 =
2018-01-21 13:54 METAR KIPT 211854Z 00000KT 10SM OVC020 04/00 A3011 RMK AO2 SLP203 T00390000 =
2018-01-21 12:54 METAR KIPT 211754Z 00000KT 10SM OVC025 03/00 A3014 RMK AO2 SLP211 T00280000
                 10028 21017 56018 =
2018-01-21 11:54 METAR KIPT 211654Z 00000KT 10SM BKN023 OVC033 02/M01 A3016 RMK AO2 SLP219
                 T00221011 =
2018-01-21 11:51 METAR KIPT 211651Z 00000KT 10SM BKN023 OVC033 02/M01 A3016 RMK AO2 =
2018-01-21 11:39 METAR KIPT 211639Z 00000KT 10SM SCT024 OVC033 02/M01 A3017 RMK AO2 T00171011 =
2018-01-21 10:54 METAR KIPT 211554Z 00000KT 10SM OVC025 02/M01 A3019 RMK AO2 SLP229 T00171011 =
2018-01-21 09:54 METAR KIPT 211454Z 00000KT 10SM OVC023 01/M02 A3019 RMK AO2 SLP230 T00061017
                 53015 =

Support USWX by starting your Amazon purchase here.